Broken sky (5-7 oktas)
http://www.flightutilities.com

QR Code
SBPL 181700Z 15009KT 9999 FEW040 BKN090 29/17 Q1019

Location: SBPL
PETROLINA - BRAZIL (PE)
Latitude: 09°21'54"S - Longitude: 040°33'59"W.
Magnetic declination: 22.6°W
Sunrise: 08:56 UTC
Sunset: 20:31 UTC
Report emitted the day: 18, time 17:00 UTC
Monday 18 June 2018 17:00 Greenwich time.
Wind: True direction = 150 degrees, speed: 9 knots (17 km/h) (5 m/s).
Runway 13, length 9843 feet, altitude 1249 feet: Cross Wind 6 KT Right - Centerline Wind 7 KT front.
Runway 31, length 9843 feet, altitude 1259 feet: Cross Wind 6 KT Left - Centerline Wind 7 KT rear.
Minimum horizontal visibility: 10 km or more.
Clouds: A few (1-2 oktas), at 4000 feet above aerodrome level (1219 meters).
Clouds: Broken sky (5-7 oktas), at 9000 feet above aerodrome level (2743 meters).
Temperature: 29 degrees Celsius (84 Fahrenheit). Dewpoint: 17 degrees Celsius (63 Fahrenheit). Relative humidity 48.42 %. Heat index = 29 degrees Celsius (85 Fahrenheit). Caution. Fatigue possible.
QNH (Sea-level pressure): 1019 hPa (30.09 inches).
0:32
Metar reliability - Emission time in hours and minutes
NOAA
Visual Flight Rules
9 KT
Wind
29/17
Temperature / Dewpoint
>10Km
Minimum horizontal visibility
4000
A few (1-2 oktas)
9000
Broken sky (5-7 oktas)
1019
Sea level pressure
22.6°W
Magnetic declination
08:56 Z
Sunrise
20:31 Z
Sunset
Map
Show on Google Maps